createdAt,value
2022-08-09T00:01:58.216Z,57.90
2022-08-09T00:04:34.572Z,58.04
2022-08-09T00:07:10.847Z,58.28
2022-08-09T00:09:41.265Z,58.36
2022-08-09T00:12:22.350Z,58.39
2022-08-09T00:14:55.848Z,58.33
2022-08-09T00:18:07.513Z,58.57
2022-08-09T00:20:17.521Z,58.39
2022-08-09T00:22:49.142Z,58.38
2022-08-09T00:25:23.618Z,58.46
2022-08-09T00:28:04.248Z,58.41
2022-08-09T00:30:34.741Z,58.48
2022-08-09T00:33:05.630Z,58.51
2022-08-09T00:35:43.022Z,58.55
2022-08-09T00:38:14.027Z,58.54
2022-08-09T00:40:52.392Z,58.43
2022-08-09T00:44:11.380Z,58.16
2022-08-09T00:46:14.588Z,58.28
2022-08-09T00:49:04.737Z,58.20
2022-08-09T00:51:54.446Z,58.27
2022-08-09T00:54:35.182Z,57.98
2022-08-09T00:57:08.915Z,58.41
2022-08-09T00:59:47.112Z,58.15
2022-08-09T01:02:27.240Z,58.25
2022-08-09T01:05:51.018Z,59.32
2022-08-09T01:08:49.363Z,59.10
2022-08-09T01:11:35.253Z,59.37
2022-08-09T01:14:29.084Z,58.71
2022-08-09T01:17:17.916Z,58.48
2022-08-09T01:20:06.654Z,58.99
2022-08-09T01:22:51.296Z,58.34
2022-08-09T01:25:57.247Z,59.31
2022-08-09T01:28:28.018Z,58.20
2022-08-09T01:31:01.412Z,58.21
2022-08-09T01:33:37.511Z,58.46
2022-08-09T01:36:11.997Z,58.36
2022-08-09T01:38:47.296Z,58.29
2022-08-09T01:41:28.514Z,58.99
2022-08-09T01:44:03.358Z,58.52
2022-08-09T01:46:41.890Z,58.99
2022-08-09T01:49:23.960Z,58.56
2022-08-09T01:52:07.441Z,58.78
2022-08-09T01:54:44.443Z,58.81
2022-08-09T01:57:23.995Z,59.04
2022-08-09T02:00:08.815Z,58.73
2022-08-09T02:02:43.745Z,58.71
2022-08-09T02:05:18.555Z,58.77
2022-08-09T02:08:38.948Z,58.84
2022-08-09T02:10:50.925Z,58.68
2022-08-09T02:13:26.205Z,58.72
2022-08-09T02:16:10.099Z,60.08
2022-08-09T02:18:48.430Z,58.91
2022-08-09T02:21:22.310Z,58.72
2022-08-09T02:23:56.560Z,58.97
2022-08-09T02:26:30.393Z,59.00
2022-08-09T02:29:23.752Z,59.45
2022-08-09T02:32:01.341Z,59.31
2022-08-09T02:34:40.712Z,59.22
2022-08-09T02:37:31.752Z,59.13
2022-08-09T02:40:10.658Z,59.71
2022-08-09T02:42:45.289Z,59.36
2022-08-09T02:45:30.281Z,59.66
2022-08-09T02:48:19.479Z,59.13
2022-08-09T02:51:02.521Z,59.41
2022-08-09T02:53:43.137Z,59.93
2022-08-09T02:56:24.330Z,59.46
2022-08-09T02:59:01.217Z,59.62
2022-08-09T03:01:58.676Z,59.38
2022-08-09T03:04:24.287Z,59.60
2022-08-09T03:07:12.429Z,59.71
2022-08-09T03:09:54.268Z,59.71
2022-08-09T03:12:28.973Z,59.79
2022-08-09T03:14:59.962Z,59.75
2022-08-09T03:17:31.734Z,59.89
2022-08-09T03:20:05.006Z,59.99
2022-08-09T03:22:44.873Z,60.01
2022-08-09T03:25:26.242Z,59.94
2022-08-09T03:28:11.309Z,60.17
2022-08-09T03:30:43.521Z,59.97
2022-08-09T03:33:19.284Z,60.21
2022-08-09T03:36:15.604Z,60.00
2022-08-09T03:38:43.545Z,60.06
2022-08-09T03:41:16.597Z,59.99
2022-08-09T03:44:03.492Z,60.16
2022-08-09T03:46:39.134Z,60.15
2022-08-09T03:49:10.597Z,60.34
2022-08-09T03:51:57.589Z,60.23
2022-08-09T03:54:34.599Z,60.34
2022-08-09T03:57:18.649Z,60.28
2022-08-09T03:59:54.783Z,60.13
2022-08-09T04:02:28.722Z,59.95
2022-08-09T04:05:06.319Z,60.33
2022-08-09T04:07:52.982Z,60.13
2022-08-09T04:10:28.794Z,60.05
2022-08-09T04:13:03.822Z,60.17
2022-08-09T04:15:52.074Z,60.12
2022-08-09T04:18:25.127Z,60.07
2022-08-09T04:20:56.846Z,60.29
2022-08-09T04:23:27.122Z,59.98
2022-08-09T04:25:57.506Z,59.87
2022-08-09T04:28:33.941Z,60.16
2022-08-09T04:31:09.510Z,60.11
2022-08-09T04:33:52.182Z,59.93
2022-08-09T04:36:29.593Z,60.00
2022-08-09T04:39:02.269Z,59.90
2022-08-09T04:41:33.935Z,60.11
2022-08-09T04:44:14.767Z,59.80
2022-08-09T04:46:59.148Z,60.11
2022-08-09T04:49:52.540Z,60.03
2022-08-09T04:52:27.820Z,59.98
2022-08-09T04:55:00.205Z,59.75
2022-08-09T04:57:54.259Z,59.73
2022-08-09T05:00:20.927Z,59.89
2022-08-09T05:02:51.867Z,59.92
2022-08-09T05:05:32.304Z,59.85
2022-08-09T05:08:15.198Z,59.70
2022-08-09T05:10:45.738Z,59.69
2022-08-09T05:13:15.978Z,59.41
2022-08-09T05:15:48.015Z,59.54
2022-08-09T05:18:38.800Z,59.72
2022-08-09T05:21:09.990Z,59.53
2022-08-09T05:23:58.240Z,59.30
2022-08-09T05:26:37.065Z,59.20
2022-08-09T05:29:21.562Z,59.48
2022-08-09T05:31:58.414Z,59.02
2022-08-09T05:34:30.926Z,59.38
2022-08-09T05:37:06.902Z,59.06
2022-08-09T05:39:43.410Z,58.87
2022-08-09T05:42:21.273Z,59.04
2022-08-09T05:44:54.234Z,59.12
2022-08-09T05:47:27.333Z,58.84
2022-08-09T05:50:30.611Z,59.45
2022-08-09T05:52:53.410Z,59.07
2022-08-09T05:55:24.541Z,58.55
2022-08-09T05:57:57.135Z,58.46
2022-08-09T06:00:31.094Z,58.63
2022-08-09T06:03:10.657Z,58.88
2022-08-09T06:05:58.216Z,58.75
2022-08-09T06:08:31.476Z,58.57
2022-08-09T06:11:01.711Z,58.38
2022-08-09T06:13:47.319Z,58.46
2022-08-09T06:16:18.186Z,58.06
2022-08-09T06:18:48.413Z,57.90
2022-08-09T06:21:19.393Z,58.21
2022-08-09T06:23:57.582Z,58.11
2022-08-09T06:26:31.680Z,58.01
2022-08-09T06:29:05.068Z,57.86
2022-08-09T06:31:40.538Z,57.52
2022-08-09T06:34:29.907Z,57.40
2022-08-09T06:37:01.040Z,57.27
2022-08-09T06:39:49.164Z,57.24
2022-08-09T06:42:24.746Z,57.06
2022-08-09T06:45:00.224Z,57.26
2022-08-09T06:47:41.678Z,56.95
2022-08-09T06:50:14.501Z,57.03
2022-08-09T06:52:49.208Z,56.83
2022-08-09T06:55:22.926Z,56.82
2022-08-09T06:58:03.410Z,56.98
2022-08-09T07:00:54.358Z,56.81
2022-08-09T07:03:28.779Z,56.89
2022-08-09T07:06:04.461Z,57.06
2022-08-09T07:08:37.289Z,57.14
2022-08-09T07:11:12.465Z,56.80
2022-08-09T07:14:04.214Z,56.84
2022-08-09T07:16:42.478Z,56.65
2022-08-09T07:19:23.688Z,56.64
2022-08-09T07:21:57.315Z,56.55
2022-08-09T07:24:40.105Z,56.27
2022-08-09T07:27:33.309Z,56.25
2022-08-09T07:30:03.357Z,55.98
2022-08-09T07:32:36.270Z,56.16
2022-08-09T07:35:11.949Z,56.44
2022-08-09T07:37:45.883Z,56.46
2022-08-09T07:40:20.670Z,55.94
2022-08-09T07:43:01.037Z,55.79
2022-08-09T07:45:39.473Z,55.84
2022-08-09T07:48:25.776Z,56.03
2022-08-09T07:51:10.244Z,56.19
2022-08-09T07:54:07.350Z,55.93
2022-08-09T07:56:48.834Z,55.71
2022-08-09T07:59:34.756Z,56.06
2022-08-09T08:02:11.205Z,56.18
2022-08-09T08:04:53.587Z,56.00
2022-08-09T08:08:43.500Z,55.94
2022-08-09T08:10:14.770Z,55.57
2022-08-09T08:12:48.924Z,55.78
2022-08-09T08:15:23.057Z,55.82
2022-08-09T08:17:57.891Z,55.56
2022-08-09T08:20:32.961Z,55.42
2022-08-09T08:23:16.394Z,55.60
2022-08-09T08:25:50.377Z,55.35
2022-08-09T08:28:25.999Z,54.99
2022-08-09T08:31:13.788Z,54.67
2022-08-09T08:33:53.330Z,54.58
2022-08-09T08:36:29.109Z,53.73
2022-08-09T08:39:00.752Z,52.67
2022-08-09T08:41:50.627Z,52.82
2022-08-09T08:44:29.396Z,52.03
2022-08-09T08:47:04.603Z,52.65
2022-08-09T08:49:48.520Z,52.47
2022-08-09T08:52:58.123Z,51.91
2022-08-09T08:55:23.508Z,52.30
2022-08-09T08:57:56.733Z,50.14
2022-08-09T09:00:30.372Z,52.21
2022-08-09T09:03:11.347Z,52.41
2022-08-09T09:06:00.393Z,52.59
2022-08-09T09:08:40.729Z,51.80
2022-08-09T09:11:13.844Z,51.98
2022-08-09T09:13:56.490Z,51.90
2022-08-09T09:16:32.260Z,52.20
2022-08-09T09:19:40.719Z,51.83
2022-08-09T09:22:04.272Z,51.03
2022-08-09T09:24:40.534Z,50.94
2022-08-09T09:28:04.363Z,51.63
2022-08-09T09:30:31.525Z,51.11
2022-08-09T09:33:15.576Z,48.88
2022-08-09T09:36:01.703Z,46.94
2022-08-09T09:38:59.169Z,47.61
2022-08-09T09:41:33.177Z,49.31
2022-08-09T09:44:33.883Z,47.28
2022-08-09T09:47:05.783Z,48.89
2022-08-09T09:50:13.290Z,48.98
2022-08-09T09:52:36.223Z,49.23
2022-08-09T09:55:28.808Z,49.43
2022-08-09T09:58:18.776Z,49.00
2022-08-09T10:00:55.095Z,49.42
2022-08-09T10:03:38.338Z,48.56
2022-08-09T10:06:11.726Z,49.25
2022-08-09T10:08:57.207Z,48.80
2022-08-09T10:11:59.219Z,48.14
2022-08-09T10:14:33.675Z,47.42
2022-08-09T10:17:24.281Z,47.11
2022-08-09T10:20:26.962Z,47.92
2022-08-09T10:23:23.766Z,47.24
2022-08-09T10:26:08.126Z,48.98
2022-08-09T10:28:48.836Z,48.57
2022-08-09T10:34:19.086Z,47.72
2022-08-09T10:37:03.398Z,48.56
2022-08-09T10:39:40.542Z,48.57
2022-08-09T10:42:20.487Z,48.54
2022-08-09T10:45:04.875Z,47.84
2022-08-09T10:48:16.528Z,48.34
2022-08-09T10:51:15.445Z,48.73
2022-08-09T10:54:06.131Z,48.88
2022-08-09T10:56:43.887Z,49.40
2022-08-09T10:59:31.248Z,48.62
2022-08-09T11:03:15.188Z,49.09
2022-08-09T11:14:57.408Z,100.00
2022-08-09T11:17:27.712Z,100.00
2022-08-09T11:20:20.528Z,100.00
2022-08-09T11:22:57.004Z,100.00
2022-08-09T11:25:45.225Z,100.00
2022-08-09T11:28:38.400Z,100.00
2022-08-09T11:31:39.697Z,100.00
2022-08-09T11:34:34.953Z,100.00
2022-08-09T11:37:07.856Z,100.00
2022-08-09T11:40:05.927Z,100.00
2022-08-09T11:42:52.874Z,100.00
2022-08-09T11:45:42.730Z,100.00
2022-08-09T11:48:26.575Z,92.51
2022-08-09T11:52:06.801Z,77.48
2022-08-09T11:54:01.171Z,72.37
2022-08-09T11:56:47.673Z,69.95
2022-08-09T11:59:30.438Z,72.88
2022-08-09T12:02:35.212Z,65.94
2022-08-09T12:04:57.953Z,65.20
2022-08-09T12:07:41.200Z,65.12
2022-08-09T12:10:38.114Z,62.86
2022-08-09T12:14:10.047Z,62.41
2022-08-09T12:16:05.395Z,52.85
2022-08-09T12:18:56.247Z,60.09
2022-08-09T12:21:38.634Z,51.16
2022-08-09T12:24:11.566Z,58.28
2022-08-09T12:26:45.024Z,54.32
2022-08-09T12:29:44.614Z,56.07
2022-08-09T12:32:28.127Z,54.20
2022-08-09T12:35:03.070Z,50.77
2022-08-09T12:37:44.109Z,54.35
2022-08-09T12:40:27.735Z,53.71
2022-08-09T12:42:58.130Z,52.42
2022-08-09T12:45:33.198Z,52.59
2022-08-09T12:48:20.277Z,51.60
2022-08-09T12:50:59.552Z,53.05
2022-08-09T12:53:41.229Z,49.78
2022-08-09T12:56:39.509Z,50.59
2022-08-09T12:59:10.097Z,52.88
2022-08-09T13:01:49.951Z,51.92
2022-08-09T13:04:35.880Z,51.44
2022-08-09T13:07:19.604Z,52.38
2022-08-09T13:10:01.998Z,46.90
2022-08-09T13:12:33.046Z,49.34
2022-08-09T13:15:10.758Z,49.64
2022-08-09T13:18:02.435Z,50.72
2022-08-09T13:20:37.951Z,51.28
2022-08-09T13:24:07.123Z,43.19
2022-08-09T13:26:49.978Z,43.93
2022-08-09T13:30:03.297Z,47.34
2022-08-09T13:32:38.287Z,46.51
2022-08-09T13:35:14.153Z,46.63
2022-08-09T13:37:56.569Z,45.11
2022-08-09T13:41:46.489Z,46.35
2022-08-09T13:43:19.194Z,46.20
2022-08-09T13:46:42.676Z,45.82
2022-08-09T13:48:42.286Z,46.57
2022-08-09T13:51:12.679Z,46.01
2022-08-09T13:53:44.739Z,45.36
2022-08-09T13:56:18.271Z,44.92
2022-08-09T13:58:53.375Z,44.81
2022-08-09T14:01:56.295Z,45.37
2022-08-09T14:04:14.059Z,45.42
2022-08-09T14:06:59.202Z,43.63
2022-08-09T14:09:30.573Z,45.35
2022-08-09T14:12:07.045Z,45.50
2022-08-09T14:14:46.169Z,45.85
2022-08-09T14:17:24.153Z,46.67
2022-08-09T14:20:05.701Z,45.91
2022-08-09T14:22:36.965Z,46.25
2022-08-09T14:25:10.129Z,46.23
2022-08-09T14:27:58.368Z,45.80
2022-08-09T14:30:36.986Z,45.58
2022-08-09T14:33:11.879Z,45.72
2022-08-09T14:35:52.105Z,45.60
2022-08-09T14:38:23.483Z,46.12
2022-08-09T14:41:02.136Z,45.81
2022-08-09T14:43:47.390Z,45.56
2022-08-09T14:46:54.859Z,45.19
2022-08-09T14:49:10.511Z,45.73
2022-08-09T14:51:42.361Z,45.62
2022-08-09T14:54:13.218Z,45.74
2022-08-09T14:56:53.695Z,45.27
2022-08-09T14:59:28.768Z,44.93
2022-08-09T15:01:59.007Z,44.91
2022-08-09T15:04:29.302Z,45.22
2022-08-09T15:06:59.507Z,45.52
2022-08-09T15:10:07.656Z,45.17
2022-08-09T15:12:21.007Z,45.04
2022-08-09T15:14:52.864Z,45.31
2022-08-09T15:17:23.342Z,44.84
2022-08-09T15:19:59.455Z,44.82
2022-08-09T15:22:33.295Z,45.00
2022-08-09T15:25:04.340Z,44.47
2022-08-09T15:27:48.032Z,44.79
2022-08-09T15:30:58.561Z,45.09
2022-08-09T15:33:23.388Z,44.66
2022-08-09T15:36:06.099Z,44.53
2022-08-09T15:38:36.518Z,44.26
2022-08-09T15:41:09.332Z,44.42
2022-08-09T15:43:40.723Z,43.87
2022-08-09T15:46:32.982Z,43.87
2022-08-09T15:49:21.051Z,43.01
2022-08-09T15:52:03.246Z,42.22
2022-08-09T15:54:49.464Z,41.55
2022-08-09T15:57:34.540Z,39.86
2022-08-09T16:00:14.787Z,40.00
2022-08-09T16:02:54.229Z,39.96
2022-08-09T16:05:47.724Z,39.11
2022-08-09T16:08:29.796Z,39.17
2022-08-09T16:11:02.682Z,39.17
2022-08-09T16:14:03.575Z,38.50
2022-08-09T16:16:26.212Z,38.77
2022-08-09T16:18:58.329Z,38.96
2022-08-09T16:21:31.704Z,39.44
2022-08-09T16:24:05.976Z,37.24
2022-08-09T16:26:43.520Z,39.72
2022-08-09T16:29:20.311Z,40.30
2022-08-09T16:32:19.578Z,40.55
2022-08-09T16:34:54.607Z,41.98
2022-08-09T16:37:55.045Z,42.69
2022-08-09T16:40:29.827Z,42.69
2022-08-09T16:43:09.869Z,43.27
2022-08-09T16:45:44.297Z,43.43
2022-08-09T16:48:39.961Z,43.79
2022-08-09T16:51:07.920Z,43.68
2022-08-09T16:53:56.351Z,43.70
2022-08-09T16:56:30.567Z,43.23
2022-08-09T16:59:10.300Z,42.96
2022-08-09T17:01:43.099Z,42.74
2022-08-09T17:04:26.001Z,42.39
2022-08-09T17:08:43.078Z,41.70
2022-08-09T17:09:48.955Z,41.44
2022-08-09T17:12:20.475Z,41.44
2022-08-09T17:14:57.323Z,41.47
2022-08-09T17:17:30.718Z,41.95
2022-08-09T17:20:35.168Z,41.80
2022-08-09T17:23:10.381Z,41.86
2022-08-09T17:25:52.879Z,41.75
2022-08-09T17:28:23.594Z,41.47
2022-08-09T17:30:53.834Z,41.53
2022-08-09T17:33:23.947Z,41.15
2022-08-09T17:35:54.193Z,41.55
2022-08-09T17:38:32.307Z,42.00
2022-08-09T17:41:07.314Z,42.42
2022-08-09T17:43:38.239Z,43.12
2022-08-09T17:46:09.854Z,43.35
2022-08-09T17:48:46.493Z,44.01
2022-08-09T17:51:22.575Z,44.08
2022-08-09T17:53:55.350Z,44.70
2022-08-09T17:56:35.168Z,44.83
2022-08-09T17:59:09.280Z,45.57
2022-08-09T18:02:07.433Z,46.02
2022-08-09T18:04:33.126Z,46.27
2022-08-09T18:07:07.507Z,46.53
2022-08-09T18:09:41.310Z,46.83
2022-08-09T18:12:17.410Z,47.55
2022-08-09T18:14:54.469Z,47.79
2022-08-09T18:18:01.699Z,48.46
2022-08-09T18:20:54.499Z,48.39
2022-08-09T18:24:11.439Z,48.76
2022-08-09T18:25:59.505Z,49.27
2022-08-09T18:30:38.914Z,49.39
2022-08-09T18:31:32.470Z,49.70
2022-08-09T18:34:13.089Z,49.76
2022-08-09T18:36:49.473Z,50.04
2022-08-09T18:39:20.188Z,50.34
2022-08-09T18:41:52.612Z,50.81
2022-08-09T18:44:25.407Z,51.27
2022-08-09T18:47:05.121Z,51.59
2022-08-09T18:49:46.223Z,51.80
2022-08-09T18:52:18.741Z,51.81
2022-08-09T18:54:55.423Z,52.07
2022-08-09T18:57:42.994Z,52.08
2022-08-09T19:00:16.590Z,52.19
2022-08-09T19:02:54.087Z,52.49
2022-08-09T19:05:28.782Z,52.77
2022-08-09T19:08:19.724Z,52.88
2022-08-09T19:10:50.895Z,53.28
2022-08-09T19:13:38.321Z,53.45
2022-08-09T19:16:20.854Z,53.31
2022-08-09T19:18:51.781Z,53.89
2022-08-09T19:21:47.915Z,53.84
2022-08-09T19:24:36.017Z,54.05
2022-08-09T19:27:03.034Z,54.08
2022-08-09T19:29:38.121Z,54.59
2022-08-09T19:32:30.677Z,54.72
2022-08-09T19:35:02.364Z,54.42
2022-08-09T19:37:54.156Z,54.91
2022-08-09T19:40:33.409Z,54.90
2022-08-09T19:43:10.193Z,55.03
2022-08-09T19:45:46.720Z,55.51
2022-08-09T19:48:17.462Z,55.68
2022-08-09T19:51:08.308Z,55.47
2022-08-09T19:53:45.566Z,55.76
2022-08-09T19:56:18.389Z,56.36
2022-08-09T19:59:33.351Z,56.64
2022-08-09T20:02:06.312Z,56.24
2022-08-09T20:04:47.807Z,56.40
2022-08-09T20:07:33.916Z,56.56
2022-08-09T20:10:17.649Z,56.66
2022-08-09T20:12:52.565Z,57.01
2022-08-09T20:16:35.774Z,56.86
2022-08-09T20:18:31.872Z,56.87
2022-08-09T20:21:02.481Z,57.21
2022-08-09T20:23:38.769Z,57.68
2022-08-09T20:26:13.071Z,57.49
2022-08-09T20:28:48.773Z,57.68
2022-08-09T20:31:20.382Z,58.00
2022-08-09T20:33:58.254Z,58.15
2022-08-09T20:36:28.887Z,58.50
2022-08-09T20:39:28.753Z,58.58
2022-08-09T20:41:49.296Z,58.60
2022-08-09T20:44:26.406Z,58.76
2022-08-09T20:46:57.791Z,59.10
2022-08-09T20:49:28.774Z,59.32
2022-08-09T20:52:00.418Z,59.05
2022-08-09T20:54:31.392Z,59.27
2022-08-09T20:57:01.782Z,59.30
2022-08-09T21:00:20.138Z,59.52
2022-08-09T21:02:22.997Z,59.60
2022-08-09T21:05:51.899Z,59.81
2022-08-09T21:07:44.592Z,59.78
2022-08-09T21:10:14.832Z,59.96
2022-08-09T21:15:34.229Z,59.66
2022-08-09T21:18:21.641Z,59.80
2022-08-09T21:20:56.640Z,59.99
2022-08-09T21:23:47.602Z,59.99
2022-08-09T21:26:17.173Z,60.32
2022-08-09T21:28:55.890Z,60.42
2022-08-09T21:31:48.798Z,60.42
2022-08-09T21:34:21.146Z,60.68
2022-08-09T21:36:59.294Z,60.30
2022-08-09T21:39:42.349Z,60.56
2022-08-09T21:42:13.057Z,60.53
2022-08-09T21:44:43.735Z,60.60
2022-08-09T21:47:18.113Z,60.64
2022-08-09T21:49:50.934Z,60.80
2022-08-09T21:52:21.655Z,60.77
2022-08-09T21:55:03.283Z,61.04
2022-08-09T21:57:38.278Z,60.91
2022-08-09T22:00:33.041Z,61.40
2022-08-09T22:03:07.069Z,61.21
2022-08-09T22:05:42.314Z,60.99
2022-08-09T22:08:16.622Z,61.03
2022-08-09T22:11:50.317Z,61.11
2022-08-09T22:13:38.852Z,61.01
2022-08-09T22:16:13.393Z,61.08
2022-08-09T22:18:54.504Z,61.20
2022-08-09T22:21:50.005Z,61.32
2022-08-09T22:24:20.965Z,61.46
2022-08-09T22:26:55.273Z,61.13
2022-08-09T22:29:34.499Z,61.41
2022-08-09T22:32:29.752Z,61.46
2022-08-09T22:35:06.582Z,61.69
2022-08-09T22:38:06.639Z,61.73
2022-08-09T22:40:38.032Z,61.76
2022-08-09T22:43:16.781Z,62.00
2022-08-09T22:48:11.987Z,61.93
2022-08-09T22:48:50.621Z,62.13
2022-08-09T22:51:24.132Z,62.26
2022-08-09T22:54:02.509Z,62.21
2022-08-09T22:56:34.580Z,62.48
2022-08-09T22:59:55.369Z,62.52
2022-08-09T23:01:56.795Z,62.67
2022-08-09T23:04:27.028Z,62.57
2022-08-09T23:08:09.425Z,62.63
2022-08-09T23:10:12.579Z,62.65
2022-08-09T23:12:43.262Z,62.70
2022-08-09T23:15:13.679Z,62.79
2022-08-09T23:17:43.926Z,62.92
2022-08-09T23:20:14.127Z,63.11
2022-08-09T23:22:44.392Z,63.36
2022-08-09T23:25:14.632Z,63.53
2022-08-09T23:27:57.475Z,63.63
2022-08-09T23:30:35.201Z,63.60
2022-08-09T23:33:05.425Z,63.63
2022-08-09T23:36:06.500Z,63.65
2022-08-09T23:38:26.145Z,63.71
2022-08-09T23:40:56.633Z,63.84
2022-08-09T23:43:26.864Z,63.75
2022-08-09T23:45:57.187Z,63.75
2022-08-09T23:48:27.422Z,63.67
2022-08-09T23:50:57.730Z,63.78
2022-08-09T23:53:32.112Z,63.65
2022-08-09T23:56:09.050Z,63.62
2022-08-09T23:58:39.289Z,64.02
